Time;durP1;ratioP1;P1;durP2;ratioP2;P2;SDS_P1;SDS_P2;PMS_P1;PMS_P2;Temp;Humidity;BMP_temperature;BMP_pressure;BME280_temperature;BME280_humidity;BME280_pressure;Samples;Min_cycle;Max_cycle;Signal;HPM_P1;HPM_P2
2023/08/26 00:01:38;;;;;;;9.27;7.17;;;;;;;;;;5033127;28;20181;-73
2023/08/26 00:04:42;;;;;;;10.57;7.17;;;;;;;;;;5021099;28;20177;-73
2023/08/26 00:07:46;;;;;;;8.80;7.40;;;;;;;;;;5033171;28;20184;-73
2023/08/26 00:10:51;;;;;;;8.00;7.13;;;;;;;;;;5032884;28;20176;-73
2023/08/26 00:13:55;;;;;;;9.67;7.37;;;;;;;;;;5033228;28;20199;-72
2023/08/26 00:16:59;;;;;;;7.90;6.90;;;;;;;;;;5033274;28;20687;-73
2023/08/26 00:20:05;;;;;;;10.13;6.73;;;;;;;;;;5033353;28;20176;-74
2023/08/26 00:23:10;;;;;;;10.10;7.23;;;;;;;;;;5032854;28;20212;-74
2023/08/26 00:26:16;;;;;;;10.33;6.80;;;;;;;;;;5036819;28;20186;-74
2023/08/26 00:29:20;;;;;;;9.53;7.50;;;;;;;;;;5013742;28;20181;-73
2023/08/26 00:32:24;;;;;;;9.17;7.17;;;;;;;;;;5013088;28;20223;-73
2023/08/26 00:35:29;;;;;;;12.13;7.40;;;;;;;;;;5024229;28;20208;-74
2023/08/26 00:38:33;;;;;;;10.77;7.50;;;;;;;;;;5024474;28;20185;-74
2023/08/26 00:41:37;;;;;;;8.60;7.00;;;;;;;;;;5024389;28;20188;-73
2023/08/26 00:44:41;;;;;;;10.07;7.17;;;;;;;;;;5013330;28;20185;-74
2023/08/26 00:47:45;;;;;;;9.30;7.70;;;;;;;;;;5024083;28;20659;-74
2023/08/26 00:50:52;;;;;;;7.60;6.67;;;;;;;;;;5024489;28;20203;-74
2023/08/26 00:53:56;;;;;;;10.10;7.47;;;;;;;;;;5024508;28;20173;-73
2023/08/26 00:57:00;;;;;;;9.83;7.40;;;;;;;;;;5024223;28;20211;-74
2023/08/26 01:00:05;;;;;;;11.80;7.33;;;;;;;;;;5024395;28;20180;-73
2023/08/26 01:03:10;;;;;;;7.83;6.90;;;;;;;;;;5012829;28;20225;-74
2023/08/26 01:06:13;;;;;;;10.13;7.20;;;;;;;;;;5023801;28;20188;-74
2023/08/26 01:09:18;;;;;;;8.67;7.77;;;;;;;;;;5035000;28;20207;-74
2023/08/26 01:12:33;;;;;;;8.87;7.00;;;;;;;;;;5023672;28;20691;-74
2023/08/26 01:15:43;;;;;;;9.90;7.10;;;;;;;;;;5023628;28;20196;-74
2023/08/26 01:18:47;;;;;;;13.33;7.27;;;;;;;;;;5023680;28;20181;-73
2023/08/26 01:21:56;;;;;;;11.43;7.60;;;;;;;;;;5012609;28;20217;-74
2023/08/26 01:25:01;;;;;;;9.10;6.33;;;;;;;;;;5012418;28;20549;-74
2023/08/26 01:28:07;;;;;;;9.03;6.97;;;;;;;;;;5023417;28;20177;-74
2023/08/26 01:31:13;;;;;;;10.50;7.37;;;;;;;;;;5023604;28;20510;-73
2023/08/26 01:34:20;;;;;;;10.60;7.10;;;;;;;;;;5022896;28;20200;-74
2023/08/26 01:37:26;;;;;;;9.73;6.83;;;;;;;;;;5035510;28;20220;-74
2023/08/26 01:40:30;;;;;;;7.60;6.90;;;;;;;;;;5035533;28;20177;-74
2023/08/26 01:43:35;;;;;;;9.00;7.03;;;;;;;;;;5023329;28;20212;-73
2023/08/26 01:46:39;;;;;;;8.87;6.90;;;;;;;;;;5035794;28;20621;-74
2023/08/26 01:49:44;;;;;;;9.23;7.53;;;;;;;;;;5011696;28;20200;-73
2023/08/26 01:52:48;;;;;;;8.33;7.13;;;;;;;;;;5012004;28;20221;-74
2023/08/26 01:55:53;;;;;;;9.33;7.67;;;;;;;;;;5011968;28;20526;-73
2023/08/26 01:58:57;;;;;;;10.43;7.83;;;;;;;;;;5023384;28;20526;-74
2023/08/26 02:02:01;;;;;;;12.70;7.77;;;;;;;;;;5022732;28;20287;-74
2023/08/26 02:05:05;;;;;;;9.00;8.07;;;;;;;;;;5035102;28;20196;-73
2023/08/26 02:08:09;;;;;;;12.03;7.50;;;;;;;;;;5022569;28;20628;-73
2023/08/26 02:11:14;;;;;;;10.27;7.93;;;;;;;;;;5011739;28;20184;-73
2023/08/26 02:14:18;;;;;;;9.23;7.07;;;;;;;;;;5011712;28;20190;-73
2023/08/26 02:17:22;;;;;;;9.53;7.37;;;;;;;;;;5022831;28;20208;-73
2023/08/26 02:20:27;;;;;;;9.10;7.43;;;;;;;;;;5034559;28;20176;-73
2023/08/26 02:23:31;;;;;;;9.23;7.13;;;;;;;;;;5011033;28;20568;-73
2023/08/26 02:26:36;;;;;;;11.37;6.77;;;;;;;;;;5022797;28;20173;-73
2023/08/26 02:29:40;;;;;;;12.13;7.40;;;;;;;;;;5022748;28;20189;-73
2023/08/26 02:32:44;;;;;;;9.37;7.03;;;;;;;;;;5022067;28;20221;-73
2023/08/26 02:35:48;;;;;;;10.00;7.80;;;;;;;;;;5022185;28;20209;-72
2023/08/26 02:38:53;;;;;;;10.40;8.50;;;;;;;;;;5021989;28;20211;-72
2023/08/26 02:41:57;;;;;;;13.57;8.63;;;;;;;;;;5021918;28;20227;-73
2023/08/26 02:45:01;;;;;;;12.07;9.00;;;;;;;;;;5022241;28;20185;-72
2023/08/26 02:48:06;;;;;;;12.30;8.83;;;;;;;;;;5010559;28;20181;-73
2023/08/26 02:51:10;;;;;;;10.93;7.97;;;;;;;;;;5034529;28;20185;-73
2023/08/26 02:54:15;;;;;;;13.00;8.10;;;;;;;;;;5021704;28;20200;-73
2023/08/26 02:57:21;;;;;;;9.47;8.13;;;;;;;;;;5034014;28;20212;-73
2023/08/26 03:00:28;;;;;;;9.67;7.60;;;;;;;;;;5021880;28;20181;-73
2023/08/26 03:03:32;;;;;;;9.33;8.30;;;;;;;;;;4999309;28;20216;-74
2023/08/26 03:06:36;;;;;;;9.90;7.83;;;;;;;;;;5010222;28;20173;-73
2023/08/26 03:09:40;;;;;;;14.87;9.10;;;;;;;;;;5021499;28;20181;-73
2023/08/26 03:12:44;;;;;;;11.30;8.43;;;;;;;;;;5010702;28;20212;-73
2023/08/26 03:15:48;;;;;;;11.43;8.80;;;;;;;;;;5021327;28;20651;-73
2023/08/26 03:18:53;;;;;;;11.57;8.63;;;;;;;;;;5021604;28;20193;-73
2023/08/26 03:21:56;;;;;;;12.37;8.20;;;;;;;;;;5033589;28;20585;-73
2023/08/26 03:25:01;;;;;;;11.43;8.63;;;;;;;;;;5010221;28;20181;-73
2023/08/26 03:28:08;;;;;;;9.90;8.23;;;;;;;;;;5010232;28;20180;-73
2023/08/26 03:31:13;;;;;;;12.13;8.80;;;;;;;;;;5021338;28;20201;-73
2023/08/26 03:34:23;;;;;;;14.93;9.83;;;;;;;;;;5021000;28;20212;-73
2023/08/26 03:37:27;;;;;;;12.03;9.47;;;;;;;;;;5033458;28;20205;-73
2023/08/26 03:40:31;;;;;;;12.97;8.93;;;;;;;;;;5021340;28;20183;-73
2023/08/26 03:43:35;;;;;;;9.90;8.00;;;;;;;;;;5020966;28;20229;-73
2023/08/26 03:46:39;;;;;;;12.17;8.23;;;;;;;;;;5021367;28;20177;-74
2023/08/26 03:49:44;;;;;;;11.43;7.50;;;;;;;;;;5009885;28;20204;-74
2023/08/26 03:52:48;;;;;;;8.57;6.63;;;;;;;;;;5009749;28;20212;-73
2023/08/26 03:55:52;;;;;;;9.33;6.97;;;;;;;;;;5010211;28;20646;-74
2023/08/26 03:58:57;;;;;;;7.47;6.40;;;;;;;;;;5011532;28;20176;-74
2023/08/26 04:02:02;;;;;;;8.67;6.10;;;;;;;;;;5025384;28;20212;-74
2023/08/26 04:05:07;;;;;;;9.00;5.20;;;;;;;;;;5037146;28;20181;-74
2023/08/26 04:08:11;;;;;;;8.73;5.67;;;;;;;;;;5025192;28;20181;-74
2023/08/26 04:11:17;;;;;;;5.70;4.77;;;;;;;;;;5025014;28;20656;-74
2023/08/26 04:14:22;;;;;;;5.90;4.93;;;;;;;;;;5025097;28;20509;-74
2023/08/26 04:17:26;;;;;;;6.90;4.90;;;;;;;;;;5024921;28;20205;-74
2023/08/26 04:20:30;;;;;;;7.13;4.93;;;;;;;;;;5013618;28;20192;-74
2023/08/26 04:23:34;;;;;;;6.27;4.83;;;;;;;;;;5024757;28;20679;-74
2023/08/26 04:26:38;;;;;;;5.83;4.77;;;;;;;;;;5024667;28;20189;-74
2023/08/26 04:29:43;;;;;;;7.63;4.90;;;;;;;;;;5013741;28;20201;-74
2023/08/26 04:32:47;;;;;;;6.13;4.70;;;;;;;;;;5024783;28;20220;-74
2023/08/26 04:35:52;;;;;;;6.13;4.73;;;;;;;;;;5024358;28;20208;-74
2023/08/26 04:38:57;;;;;;;5.10;4.60;;;;;;;;;;5024467;28;20177;-74
2023/08/26 04:42:02;;;;;;;6.50;4.70;;;;;;;;;;5036512;28;20208;-74
2023/08/26 04:45:06;;;;;;;5.30;4.80;;;;;;;;;;5024450;28;20181;-73
2023/08/26 04:48:11;;;;;;;8.33;4.93;;;;;;;;;;5024065;28;20533;-73
2023/08/26 04:51:15;;;;;;;4.93;4.40;;;;;;;;;;5035939;28;20525;-73
2023/08/26 04:54:21;;;;;;;6.03;4.50;;;;;;;;;;5024234;28;20192;-73
2023/08/26 04:57:25;;;;;;;5.10;4.30;;;;;;;;;;5036018;28;20221;-73
2023/08/26 05:00:29;;;;;;;4.83;4.17;;;;;;;;;;5012637;28;20185;-73
2023/08/26 05:03:33;;;;;;;10.20;5.00;;;;;;;;;;5023878;28;20216;-73
2023/08/26 05:06:38;;;;;;;5.77;4.80;;;;;;;;;;5036382;28;20201;-74
2023/08/26 05:09:42;;;;;;;6.47;4.40;;;;;;;;;;5023509;28;20177;-73
2023/08/26 05:12:47;;;;;;;4.80;4.30;;;;;;;;;;5012746;28;20216;-73
2023/08/26 05:15:51;;;;;;;6.00;4.23;;;;;;;;;;5024425;28;20181;-73
2023/08/26 05:18:55;;;;;;;5.10;4.60;;;;;;;;;;5012299;28;20212;-73
2023/08/26 05:22:01;;;;;;;6.37;3.93;;;;;;;;;;5012328;28;20212;-73
2023/08/26 05:25:06;;;;;;;6.07;4.43;;;;;;;;;;5011923;28;20518;-74
2023/08/26 05:28:10;;;;;;;5.50;4.43;;;;;;;;;;5023479;28;20173;-74
2023/08/26 05:31:15;;;;;;;7.23;4.40;;;;;;;;;;5011926;28;20672;-74
2023/08/26 05:34:19;;;;;;;5.97;4.33;;;;;;;;;;5023061;28;20204;-74
2023/08/26 05:37:24;;;;;;;5.20;4.67;;;;;;;;;;5022928;28;20213;-74
2023/08/26 05:40:29;;;;;;;6.47;4.40;;;;;;;;;;5023291;28;20185;-74
2023/08/26 05:43:33;;;;;;;5.60;4.50;;;;;;;;;;5023222;28;20692;-74
2023/08/26 05:46:37;;;;;;;5.10;4.03;;;;;;;;;;5022929;28;20181;-74
2023/08/26 05:49:41;;;;;;;9.67;4.80;;;;;;;;;;5011949;28;20177;-74
2023/08/26 05:52:46;;;;;;;7.63;5.30;;;;;;;;;;5022950;28;20216;-74
2023/08/26 05:55:50;;;;;;;7.27;5.20;;;;;;;;;;5022882;28;20181;-73
2023/08/26 05:58:55;;;;;;;5.67;4.63;;;;;;;;;;5011473;28;20561;-74
2023/08/26 06:02:00;;;;;;;5.83;4.77;;;;;;;;;;5022732;28;20220;-74
2023/08/26 06:05:05;;;;;;;4.57;3.70;;;;;;;;;;5022805;28;20636;-74
2023/08/26 06:08:09;;;;;;;4.33;3.93;;;;;;;;;;5011581;28;20177;-74
2023/08/26 06:11:13;;;;;;;5.20;4.27;;;;;;;;;;5000171;28;20176;-74
2023/08/26 06:14:19;;;;;;;6.73;4.00;;;;;;;;;;5022409;28;20185;-73
2023/08/26 06:17:24;;;;;;;6.23;4.30;;;;;;;;;;5034655;28;20216;-74
2023/08/26 06:20:29;;;;;;;5.57;4.07;;;;;;;;;;5022164;28;20184;-73
2023/08/26 06:23:33;;;;;;;5.00;3.77;;;;;;;;;;5034610;28;20577;-74
2023/08/26 06:26:37;;;;;;;5.37;3.87;;;;;;;;;;5022169;28;20189;-74
2023/08/26 06:29:54;;;;;;;4.17;3.70;;;;;;;;;;5022099;28;20189;-74
2023/08/26 06:32:59;;;;;;;5.63;3.83;;;;;;;;;;5021952;28;20208;-73
2023/08/26 06:36:04;;;;;;;4.70;3.90;;;;;;;;;;5022107;28;20205;-74
2023/08/26 06:39:08;;;;;;;4.67;3.87;;;;;;;;;;5010688;28;20212;-74
2023/08/26 06:42:12;;;;;;;5.67;3.97;;;;;;;;;;5021826;28;20213;-74
2023/08/26 06:45:28;;;;;;;5.20;3.50;;;;;;;;;;5012280;28;20178;-74
2023/08/26 06:48:34;;;;;;;7.10;3.83;;;;;;;;;;5021997;28;20530;-74
2023/08/26 06:51:38;;;;;;;4.83;4.10;;;;;;;;;;5010896;28;20174;-74
2023/08/26 06:54:42;;;;;;;4.77;3.90;;;;;;;;;;5022092;28;20182;-74
2023/08/26 06:57:46;;;;;;;4.93;3.93;;;;;;;;;;5010356;28;20212;-74
2023/08/26 07:00:50;;;;;;;5.80;3.97;;;;;;;;;;5033701;28;20192;-74
2023/08/26 07:04:08;;;;;;;6.03;4.10;;;;;;;;;;5021438;28;20194;-74
2023/08/26 07:07:13;;;;;;;5.00;3.80;;;;;;;;;;5033622;28;20181;-73
2023/08/26 07:10:17;;;;;;;5.20;3.70;;;;;;;;;;5033488;28;20189;-73
2023/08/26 07:13:21;;;;;;;5.73;4.23;;;;;;;;;;5021229;28;20709;-73
2023/08/26 07:16:26;;;;;;;9.83;3.77;;;;;;;;;;5021661;28;20657;-74
2023/08/26 07:19:30;;;;;;;5.53;4.17;;;;;;;;;;5021341;28;20222;-74
2023/08/26 07:22:34;;;;;;;6.03;4.07;;;;;;;;;;5033545;28;20227;-74
2023/08/26 07:25:39;;;;;;;5.50;4.20;;;;;;;;;;5021149;28;20178;-75
2023/08/26 07:28:45;;;;;;;4.73;4.20;;;;;;;;;;5033260;28;20179;-75
2023/08/26 07:31:49;;;;;;;4.47;4.03;;;;;;;;;;5033372;28;20212;-76
2023/08/26 07:34:53;;;;;;;6.47;4.17;;;;;;;;;;5021044;28;20200;-75
2023/08/26 07:37:57;;;;;;;5.57;4.57;;;;;;;;;;5020643;28;20203;-75
2023/08/26 07:41:02;;;;;;;6.53;4.40;;;;;;;;;;5032933;28;20195;-74
2023/08/26 07:44:06;;;;;;;5.63;4.27;;;;;;;;;;5033060;28;20548;-75
2023/08/26 07:47:10;;;;;;;6.33;5.10;;;;;;;;;;5033336;28;20182;-75
2023/08/26 07:50:14;;;;;;;5.60;4.50;;;;;;;;;;5033085;28;20184;-75
2023/08/26 07:53:18;;;;;;;5.53;4.70;;;;;;;;;;5033253;28;20212;-75
2023/08/26 07:56:23;;;;;;;5.63;5.00;;;;;;;;;;5033375;28;20178;-75
2023/08/26 07:59:27;;;;;;;7.33;5.30;;;;;;;;;;5033084;28;20218;-74
2023/08/26 08:02:31;;;;;;;7.37;5.27;;;;;;;;;;5021193;28;20217;-74
2023/08/26 08:05:35;;;;;;;9.90;5.00;;;;;;;;;;5032921;28;20178;-74
2023/08/26 08:08:39;;;;;;;5.80;5.20;;;;;;;;;;5020630;28;20180;-74
2023/08/26 08:11:43;;;;;;;5.90;5.10;;;;;;;;;;5020550;28;20223;-74
2023/08/26 08:14:47;;;;;;;6.37;5.10;;;;;;;;;;5020536;28;20207;-74
2023/08/26 08:17:51;;;;;;;6.40;4.97;;;;;;;;;;5032614;28;20562;-74
2023/08/26 08:20:55;;;;;;;7.10;5.80;;;;;;;;;;5033181;28;20188;-74
2023/08/26 08:24:00;;;;;;;7.43;5.70;;;;;;;;;;5032720;28;20183;-74
2023/08/26 08:27:04;;;;;;;7.83;4.80;;;;;;;;;;5033133;28;20622;-74
2023/08/26 08:30:08;;;;;;;8.27;5.55;;;;;;;;;;5032869;28;20273;-74
2023/08/26 08:33:13;;;;;;;7.90;4.80;;;;;;;;;;5020671;28;20213;-74
2023/08/26 08:36:17;;;;;;;5.85;4.68;;;;;;;;;;5032751;28;20206;-74
2023/08/26 08:39:21;;;;;;;9.85;5.00;;;;;;;;;;5032669;28;20215;-74
2023/08/26 08:42:26;;;;;;;4.75;3.85;;;;;;;;;;5032685;28;20577;-74
2023/08/26 08:45:31;;;;;;;4.57;4.18;;;;;;;;;;5034929;28;20618;-74
2023/08/26 08:48:36;;;;;;;6.82;5.00;;;;;;;;;;5036576;28;20525;-74
2023/08/26 08:51:40;;;;;;;9.23;4.57;;;;;;;;;;5036514;28;20222;-74
2023/08/26 08:54:44;;;;;;;6.65;4.57;;;;;;;;;;5036002;28;20518;-74
2023/08/26 08:57:51;;;;;;;6.95;4.90;;;;;;;;;;5023841;28;20183;-74
2023/08/26 09:00:56;;;;;;;8.13;4.90;;;;;;;;;;5035967;28;20177;-74
2023/08/26 09:04:05;;;;;;;7.13;4.28;;;;;;;;;;5012369;28;20182;-75
2023/08/26 09:07:12;;;;;;;7.68;4.53;;;;;;;;;;5024259;28;20186;-73
2023/08/26 09:10:16;;;;;;;9.45;4.45;;;;;;;;;;5023760;28;20179;-73
2023/08/26 09:13:20;;;;;;;6.57;4.07;;;;;;;;;;5035474;28;20213;-73
2023/08/26 09:16:28;;;;;;;7.72;4.50;;;;;;;;;;5035808;28;20179;-73
2023/08/26 09:19:33;;;;;;;6.68;4.20;;;;;;;;;;5035458;28;20208;-74
2023/08/26 09:22:37;;;;;;;4.72;4.05;;;;;;;;;;5035673;28;20217;-73
2023/08/26 09:25:55;;;;;;;7.30;4.05;;;;;;;;;;5023475;28;20199;-73
2023/08/26 09:29:00;;;;;;;6.57;4.38;;;;;;;;;;5036093;28;20184;-73
2023/08/26 09:32:05;;;;;;;5.85;4.40;;;;;;;;;;5023670;28;20214;-73
2023/08/26 09:35:11;;;;;;;6.80;3.67;;;;;;;;;;5035416;28;20212;-73
2023/08/26 09:38:15;;;;;;;7.68;3.80;;;;;;;;;;5012203;28;20181;-73
2023/08/26 09:41:19;;;;;;;6.90;3.50;;;;;;;;;;5023412;28;20185;-73
2023/08/26 09:44:23;;;;;;;9.05;3.85;;;;;;;;;;5035440;28;20521;-74
2023/08/26 09:47:29;;;;;;;8.30;4.13;;;;;;;;;;5023069;28;20630;-73
2023/08/26 09:50:33;;;;;;;9.30;3.75;;;;;;;;;;5022902;28;20541;-73
2023/08/26 09:53:38;;;;;;;5.90;4.20;;;;;;;;;;5034832;28;20222;-73
2023/08/26 09:56:42;;;;;;;7.22;3.70;;;;;;;;;;5034905;28;20176;-73
2023/08/26 09:59:46;;;;;;;7.32;4.03;;;;;;;;;;5035084;28;20678;-73
2023/08/26 10:02:54;;;;;;;5.93;4.40;;;;;;;;;;5022413;28;20215;-75
2023/08/26 10:06:00;;;;;;;11.82;4.07;;;;;;;;;;5035027;28;20180;-75
2023/08/26 10:09:29;;;;;;;8.02;3.63;;;;;;;;;;5034819;28;20180;-75
2023/08/26 10:12:40;;;;;;;7.43;3.60;;;;;;;;;;5022242;28;20212;-74
2023/08/26 10:15:48;;;;;;;6.85;4.05;;;;;;;;;;5034787;28;20205;-74
2023/08/26 10:18:57;;;;;;;5.60;3.63;;;;;;;;;;5022201;28;20205;-74
2023/08/26 10:22:02;;;;;;;5.03;3.45;;;;;;;;;;5034218;28;20212;-75
2023/08/26 10:25:08;;;;;;;6.50;3.53;;;;;;;;;;5034443;28;20182;-74
2023/08/26 10:28:12;;;;;;;4.93;3.42;;;;;;;;;;5034313;28;20177;-74
2023/08/26 10:31:16;;;;;;;6.18;3.78;;;;;;;;;;5034548;28;20174;-74
2023/08/26 10:34:29;;;;;;;5.68;3.67;;;;;;;;;;5034146;28;20197;-74
2023/08/26 10:37:34;;;;;;;6.15;3.20;;;;;;;;;;5010790;28;20197;-73
2023/08/26 10:40:38;;;;;;;7.88;3.97;;;;;;;;;;5034107;28;20212;-74
2023/08/26 10:43:53;;;;;;;8.68;3.70;;;;;;;;;;5021720;28;20212;-73
2023/08/26 10:46:57;;;;;;;8.30;3.60;;;;;;;;;;5034446;28;20522;-74
2023/08/26 10:50:21;;;;;;;6.88;3.55;;;;;;;;;;5022005;28;20181;-73
2023/08/26 10:53:26;;;;;;;6.32;3.45;;;;;;;;;;5021593;28;20220;-73
2023/08/26 10:56:34;;;;;;;8.90;3.70;;;;;;;;;;5021709;28;20201;-73
2023/08/26 10:59:45;;;;;;;7.90;3.75;;;;;;;;;;5033846;28;20205;-74
2023/08/26 11:02:50;;;;;;;6.22;3.63;;;;;;;;;;5034002;28;20217;-74
2023/08/26 11:06:02;;;;;;;5.75;3.78;;;;;;;;;;5033878;28;20205;-73
2023/08/26 11:09:08;;;;;;;6.20;3.38;;;;;;;;;;5021285;28;20181;-74
2023/08/26 11:12:26;;;;;;;4.75;3.30;;;;;;;;;;5021318;28;20216;-74
2023/08/26 11:15:34;;;;;;;7.13;3.53;;;;;;;;;;5033477;28;20177;-73
2023/08/26 11:18:39;;;;;;;9.50;4.07;;;;;;;;;;5021162;28;20174;-73
2023/08/26 11:21:43;;;;;;;5.72;3.20;;;;;;;;;;5033933;28;20220;-73
2023/08/26 11:24:48;;;;;;;4.65;3.58;;;;;;;;;;5021674;28;20200;-73
2023/08/26 11:27:53;;;;;;;7.70;3.72;;;;;;;;;;5033327;28;20624;-73
2023/08/26 11:30:58;;;;;;;8.38;3.58;;;;;;;;;;5033890;28;20173;-73
2023/08/26 11:34:02;;;;;;;7.78;3.28;;;;;;;;;;5033346;28;20192;-74
2023/08/26 11:37:07;;;;;;;7.93;3.83;;;;;;;;;;5021282;28;20184;-73
2023/08/26 11:40:12;;;;;;;7.85;3.55;;;;;;;;;;5009614;28;20688;-73
2023/08/26 11:43:19;;;;;;;5.25;3.15;;;;;;;;;;5032835;28;20221;-73
2023/08/26 11:46:23;;;;;;;7.80;3.90;;;;;;;;;;5021069;28;20189;-73
2023/08/26 11:49:27;;;;;;;5.45;3.33;;;;;;;;;;5021086;28;20192;-73
2023/08/26 11:52:35;;;;;;;7.75;3.53;;;;;;;;;;5033114;28;20224;-73
2023/08/26 11:55:39;;;;;;;4.80;3.42;;;;;;;;;;5033069;28;20185;-73
2023/08/26 11:58:43;;;;;;;5.03;3.58;;;;;;;;;;5020734;28;20177;-74
2023/08/26 12:01:47;;;;;;;8.05;3.58;;;;;;;;;;5032801;28;20220;-73
2023/08/26 12:04:56;;;;;;;8.73;3.70;;;;;;;;;;5032967;28;20173;-73
2023/08/26 12:08:00;;;;;;;5.05;3.17;;;;;;;;;;5033377;28;20181;-73
2023/08/26 12:11:04;;;;;;;5.15;3.35;;;;;;;;;;5020660;28;20518;-73
2023/08/26 12:14:19;;;;;;;7.15;3.38;;;;;;;;;;5032764;28;20189;-73
2023/08/26 12:17:22;;;;;;;7.22;3.60;;;;;;;;;;5032789;28;20177;-73
2023/08/26 12:20:29;;;;;;;7.45;3.78;;;;;;;;;;5034931;28;20208;-73
2023/08/26 12:23:33;;;;;;;6.22;3.10;;;;;;;;;;5024452;28;20213;-73
2023/08/26 12:26:38;;;;;;;7.03;3.05;;;;;;;;;;5036768;28;20181;-73
2023/08/26 12:29:42;;;;;;;6.15;3.05;;;;;;;;;;5036085;28;20177;-73
2023/08/26 12:32:47;;;;;;;8.35;3.40;;;;;;;;;;5036463;28;20213;-73
2023/08/26 12:35:52;;;;;;;7.32;3.38;;;;;;;;;;5036319;28;20201;-73
2023/08/26 12:38:56;;;;;;;5.72;3.25;;;;;;;;;;5024176;28;20197;-73
2023/08/26 12:42:00;;;;;;;5.47;3.28;;;;;;;;;;5001694;28;20213;-73
2023/08/26 12:45:05;;;;;;;8.27;3.88;;;;;;;;;;5036305;28;20177;-74
2023/08/26 12:48:09;;;;;;;6.40;3.67;;;;;;;;;;5024242;28;20187;-73
2023/08/26 12:51:13;;;;;;;8.20;3.67;;;;;;;;;;5023914;28;20169;-73
2023/08/26 12:54:17;;;;;;;8.88;3.88;;;;;;;;;;5024501;28;20179;-73
2023/08/26 12:57:22;;;;;;;7.05;3.72;;;;;;;;;;5036298;28;20191;-73
2023/08/26 13:00:26;;;;;;;5.88;3.45;;;;;;;;;;5023790;28;20687;-73
2023/08/26 13:03:30;;;;;;;6.03;3.65;;;;;;;;;;5023919;28;20215;-73
2023/08/26 13:06:36;;;;;;;8.85;3.83;;;;;;;;;;5023818;28;20186;-73
2023/08/26 13:09:40;;;;;;;5.53;3.42;;;;;;;;;;5035869;28;20178;-73
2023/08/26 13:12:44;;;;;;;6.47;3.63;;;;;;;;;;5035915;28;20219;-74
2023/08/26 13:15:50;;;;;;;7.60;3.90;;;;;;;;;;5035854;28;20527;-73
2023/08/26 13:18:54;;;;;;;7.13;3.85;;;;;;;;;;5011210;28;20181;-72
2023/08/26 13:21:58;;;;;;;8.57;4.13;;;;;;;;;;5012483;28;20216;-73
2023/08/26 13:25:02;;;;;;;6.78;3.65;;;;;;;;;;5025070;28;20189;-73
2023/08/26 13:28:06;;;;;;;7.47;3.85;;;;;;;;;;5026783;28;20188;-73
2023/08/26 13:31:10;;;;;;;4.38;3.53;;;;;;;;;;5013695;28;20559;-73
2023/08/26 13:34:14;;;;;;;7.18;4.20;;;;;;;;;;5011512;28;20576;-73
2023/08/26 13:37:18;;;;;;;5.28;4.10;;;;;;;;;;5032661;28;20185;-73
2023/08/26 13:40:23;;;;;;;7.85;3.85;;;;;;;;;;5034410;28;20222;-72
2023/08/26 13:43:27;;;;;;;13.60;4.80;;;;;;;;;;5022309;28;20216;-72
2023/08/26 13:46:32;;;;;;;5.43;4.60;;;;;;;;;;5034397;28;20749;-72
2023/08/26 13:49:36;;;;;;;5.32;4.30;;;;;;;;;;5035146;28;20177;-73
2023/08/26 13:52:41;;;;;;;8.93;4.20;;;;;;;;;;5034989;28;20573;-73
2023/08/26 13:55:44;;;;;;;6.80;4.85;;;;;;;;;;5035006;28;20181;-73
2023/08/26 13:58:48;;;;;;;10.00;4.95;;;;;;;;;;5034926;28;20204;-74
2023/08/26 14:01:53;;;;;;;6.03;3.85;;;;;;;;;;5034904;28;20221;-73
2023/08/26 14:04:57;;;;;;;9.27;5.05;;;;;;;;;;5034585;28;20171;-74
2023/08/26 14:08:01;;;;;;;6.40;5.00;;;;;;;;;;5034762;28;20178;-73
2023/08/26 14:11:05;;;;;;;6.15;4.40;;;;;;;;;;5011486;28;20174;-74
2023/08/26 14:14:09;;;;;;;7.53;4.93;;;;;;;;;;5034738;28;20182;-74
2023/08/26 14:17:13;;;;;;;9.15;4.95;;;;;;;;;;5022515;28;20175;-74
2023/08/26 14:20:17;;;;;;;8.40;5.05;;;;;;;;;;5034301;28;20210;-74
2023/08/26 14:23:21;;;;;;;8.73;5.57;;;;;;;;;;5034315;28;20561;-74
2023/08/26 14:26:25;;;;;;;6.38;5.68;;;;;;;;;;5010840;28;20178;-74
2023/08/26 14:29:29;;;;;;;7.50;5.55;;;;;;;;;;5034421;28;20188;-74
2023/08/26 14:32:34;;;;;;;7.93;5.70;;;;;;;;;;5021787;28;20241;-73
2023/08/26 14:35:38;;;;;;;8.37;5.93;;;;;;;;;;5023588;28;20208;-73
2023/08/26 14:38:45;;;;;;;7.70;5.33;;;;;;;;;;5033936;28;20179;-73
2023/08/26 14:41:49;;;;;;;10.13;6.37;;;;;;;;;;5033653;28;20698;-72
2023/08/26 14:44:54;;;;;;;5.53;2.17;;;;;;;;;;5022057;28;20188;-71
2023/08/26 14:47:58;;;;;;;7.43;1.60;;;;;;;;;;5033844;28;20177;-71
2023/08/26 14:51:02;;;;;;;7.17;2.37;;;;;;;;;;5034023;28;20178;-73
2023/08/26 14:54:06;;;;;;;9.27;2.30;;;;;;;;;;5033774;28;20517;-73
2023/08/26 14:57:10;;;;;;;7.87;2.63;;;;;;;;;;5033678;28;20181;-73
2023/08/26 15:00:15;;;;;;;7.57;2.77;;;;;;;;;;5033846;28;20201;-74
2023/08/26 15:03:20;;;;;;;6.47;2.77;;;;;;;;;;5033435;28;20216;-74
2023/08/26 15:06:24;;;;;;;5.37;2.60;;;;;;;;;;5033434;28;20176;-72
2023/08/26 15:09:28;;;;;;;4.87;2.70;;;;;;;;;;5033516;28;20177;-72
2023/08/26 15:12:33;;;;;;;4.50;2.70;;;;;;;;;;5021480;28;20212;-72
2023/08/26 15:15:37;;;;;;;6.50;2.80;;;;;;;;;;5033403;28;20525;-71
2023/08/26 15:18:41;;;;;;;9.27;4.50;;;;;;;;;;5033722;28;20192;-72
2023/08/26 15:21:45;;;;;;;35.70;15.47;;;;;;;;;;5033094;28;20232;-72
2023/08/26 15:24:49;;;;;;;8.03;4.43;;;;;;;;;;4998952;28;20195;-74
2023/08/26 15:27:53;;;;;;;12.20;3.50;;;;;;;;;;5021049;28;20188;-73
2023/08/26 15:30:58;;;;;;;16.73;8.40;;;;;;;;;;5033105;28;20188;-73
2023/08/26 15:34:03;;;;;;;25.43;10.43;;;;;;;;;;5033289;28;20192;-72
2023/08/26 15:37:08;;;;;;;13.10;7.57;;;;;;;;;;5020953;28;20184;-72
2023/08/26 15:40:12;;;;;;;7.57;3.93;;;;;;;;;;5032933;28;20687;-72
2023/08/26 15:43:16;;;;;;;10.70;5.43;;;;;;;;;;5020980;28;20220;-72
2023/08/26 15:46:21;;;;;;;5.10;3.60;;;;;;;;;;5020832;28;20181;-73
2023/08/26 15:49:25;;;;;;;12.13;4.57;;;;;;;;;;5033148;28;20188;-72
2023/08/26 15:52:29;;;;;;;8.20;3.53;;;;;;;;;;5033006;28;20228;-73
2023/08/26 15:55:37;;;;;;;7.67;3.80;;;;;;;;;;5032955;28;20176;-72
2023/08/26 15:58:42;;;;;;;6.13;3.00;;;;;;;;;;5032742;28;20196;-71
2023/08/26 16:01:47;;;;;;;6.83;2.90;;;;;;;;;;5020458;28;20236;-73
2023/08/26 16:04:51;;;;;;;6.17;2.70;;;;;;;;;;5032825;28;20189;-72
2023/08/26 16:07:55;;;;;;;7.20;3.40;;;;;;;;;;5020776;28;20659;-73
2023/08/26 16:10:59;;;;;;;4.20;2.67;;;;;;;;;;5033111;28;20177;-73
2023/08/26 16:14:04;;;;;;;6.43;2.83;;;;;;;;;;5020965;28;20176;-73
2023/08/26 16:17:08;;;;;;;5.97;2.93;;;;;;;;;;5032950;28;20181;-73
2023/08/26 16:20:12;;;;;;;5.87;2.37;;;;;;;;;;5009347;28;20605;-73
2023/08/26 16:23:16;;;;;;;7.47;2.93;;;;;;;;;;5020593;28;20216;-72
2023/08/26 16:26:20;;;;;;;8.53;3.00;;;;;;;;;;5020602;28;20201;-73
2023/08/26 16:29:25;;;;;;;4.53;3.27;;;;;;;;;;5032899;28;20181;-73
2023/08/26 16:32:29;;;;;;;6.73;2.97;;;;;;;;;;5020311;28;20212;-73
2023/08/26 16:35:33;;;;;;;4.73;2.77;;;;;;;;;;5032597;28;20200;-73
2023/08/26 16:38:37;;;;;;;7.77;2.93;;;;;;;;;;5032667;28;20177;-74
2023/08/26 16:41:41;;;;;;;4.33;3.00;;;;;;;;;;5032402;28;20577;-74
2023/08/26 16:44:45;;;;;;;6.73;3.00;;;;;;;;;;5020458;28;20530;-73
2023/08/26 16:47:49;;;;;;;4.70;2.83;;;;;;;;;;5020349;28;20181;-73
2023/08/26 16:50:56;;;;;;;5.10;3.00;;;;;;;;;;5020293;28;20181;-73
2023/08/26 16:54:01;;;;;;;4.30;2.97;;;;;;;;;;5032390;28;20177;-73
2023/08/26 16:57:05;;;;;;;6.27;2.90;;;;;;;;;;5032760;28;20177;-73
2023/08/26 17:00:09;;;;;;;6.50;3.20;;;;;;;;;;5020315;28;20185;-73
2023/08/26 17:03:13;;;;;;;3.87;3.10;;;;;;;;;;5032576;28;20217;-73
2023/08/26 17:06:18;;;;;;;4.40;3.40;;;;;;;;;;5034505;28;20188;-73
2023/08/26 17:09:26;;;;;;;8.93;3.30;;;;;;;;;;5023813;28;20197;-73
2023/08/26 17:12:30;;;;;;;5.37;2.90;;;;;;;;;;5024106;28;20544;-73
2023/08/26 17:15:34;;;;;;;3.70;2.93;;;;;;;;;;5024097;28;20173;-73
2023/08/26 17:18:39;;;;;;;6.73;3.30;;;;;;;;;;5024003;28;20185;-73
2023/08/26 17:21:43;;;;;;;5.83;3.33;;;;;;;;;;5023508;28;20224;-74
2023/08/26 17:24:47;;;;;;;6.43;3.43;;;;;;;;;;5035860;28;20177;-73
2023/08/26 17:27:51;;;;;;;7.20;2.60;;;;;;;;;;5035863;28;20525;-75
2023/08/26 17:30:55;;;;;;;5.23;2.90;;;;;;;;;;5035746;28;20176;-74
2023/08/26 17:33:59;;;;;;;4.53;2.90;;;;;;;;;;5035595;28;20632;-74
2023/08/26 17:37:03;;;;;;;5.50;3.27;;;;;;;;;;5035379;28;20184;-74
2023/08/26 17:40:08;;;;;;;4.67;2.87;;;;;;;;;;5035427;28;20177;-74
2023/08/26 17:43:12;;;;;;;3.23;2.50;;;;;;;;;;5035569;28;20213;-74
2023/08/26 17:46:21;;;;;;;5.03;2.33;;;;;;;;;;5035550;28;20181;-74
2023/08/26 17:49:25;;;;;;;4.37;2.53;;;;;;;;;;5035316;28;20184;-73
2023/08/26 17:52:29;;;;;;;3.73;2.40;;;;;;;;;;5022998;28;20695;-73
2023/08/26 17:55:35;;;;;;;7.50;2.73;;;;;;;;;;5035413;28;20180;-73
2023/08/26 17:58:39;;;;;;;3.37;2.10;;;;;;;;;;5022720;28;20184;-73
2023/08/26 18:01:43;;;;;;;3.47;2.00;;;;;;;;;;5034831;28;20224;-73
2023/08/26 18:04:48;;;;;;;4.03;2.40;;;;;;;;;;5034966;28;20181;-73
2023/08/26 18:07:52;;;;;;;3.93;1.90;;;;;;;;;;5035146;28;20185;-73
2023/08/26 18:10:57;;;;;;;4.23;1.93;;;;;;;;;;5022656;28;20177;-73
2023/08/26 18:14:02;;;;;;;3.93;2.00;;;;;;;;;;5022681;28;20181;-73
2023/08/26 18:17:06;;;;;;;2.87;1.80;;;;;;;;;;5021461;28;20177;-73
2023/08/26 18:20:11;;;;;;;5.70;2.20;;;;;;;;;;5035090;28;20181;-73
2023/08/26 18:23:15;;;;;;;8.90;2.50;;;;;;;;;;5022620;28;20204;-73
2023/08/26 18:26:19;;;;;;;3.03;1.87;;;;;;;;;;5023065;28;20185;-74